Time;durP1;ratioP1;P1;durP2;ratioP2;P2;SDS_P1;SDS_P2;PMS_P1;PMS_P2;Temp;Humidity;BMP_temperature;BMP_pressure;BME280_temperature;BME280_humidity;BME280_pressure;Samples;Min_cycle;Max_cycle;Signal;HPM_P1;HPM_P2
2021/07/23 00:04:08;;;;;;;10.53;7.60;;;;;;;19.82;60.80;99279.41;262723;1095;116726;-67
2021/07/23 00:09:12;;;;;;;13.75;8.18;;;;;;;19.82;61.32;99278.56;262909;1093;115159;-69
2021/07/23 00:14:15;;;;;;;12.77;8.10;;;;;;;19.82;61.46;99290.20;262658;1095;115063;-70
2021/07/23 00:19:19;;;;;;;13.88;8.30;;;;;;;19.85;61.73;99279.11;262944;1095;116191;-68
2021/07/23 00:24:23;;;;;;;14.20;8.57;;;;;;;19.84;61.73;99276.57;263009;1095;115358;-70
2021/07/23 00:29:26;;;;;;;11.80;8.63;;;;;;;19.81;62.46;99280.41;262798;1094;114473;-72
2021/07/23 00:34:30;;;;;;;15.95;8.63;;;;;;;19.75;61.90;99280.16;262812;1094;115027;-70
2021/07/23 00:39:33;;;;;;;14.10;8.70;;;;;;;19.70;61.98;99282.42;262567;1093;115061;-70
2021/07/23 00:44:38;;;;;;;10.88;8.08;;;;;;;19.69;61.90;99288.84;263040;1096;115311;-69
2021/07/23 00:49:41;;;;;;;12.95;8.40;;;;;;;19.69;61.96;99278.03;262851;1095;114920;-69
2021/07/23 00:54:45;;;;;;;15.28;8.28;;;;;;;19.71;62.08;99282.30;263149;1095;116068;-70
2021/07/23 00:59:49;;;;;;;13.23;8.20;;;;;;;19.72;62.26;99275.05;263117;1095;117420;-70
2021/07/23 01:04:53;;;;;;;10.63;8.78;;;;;;;19.71;62.36;99276.90;262886;1096;115074;-71
2021/07/23 01:10:00;;;;;;;10.73;7.85;;;;;;;19.67;62.19;99263.84;262683;1095;115093;-70
2021/07/23 01:15:34;;;;;;;11.37;7.87;;;;;;;19.59;62.34;99268.08;263123;1093;115071;-71
2021/07/23 01:20:41;;;;;;;13.47;8.03;;;;;;;19.55;62.50;99272.07;263124;1096;114970;-71
2021/07/23 01:25:45;;;;;;;14.37;7.73;;;;;;;19.56;62.43;99264.82;262228;1095;115240;-72
2021/07/23 01:30:50;;;;;;;13.77;8.27;;;;;;;19.56;62.74;99260.27;263103;1094;115107;-72
2021/07/23 01:36:01;;;;;;;11.55;8.63;;;;;;;19.56;62.75;99260.27;261767;1095;114832;-71
2021/07/23 01:41:08;;;;;;;15.37;8.73;;;;;;;19.55;63.19;99255.88;263115;1095;115305;-69
2021/07/23 01:46:12;;;;;;;14.95;9.38;;;;;;;19.54;63.30;99251.48;262224;1095;114949;-69
2021/07/23 01:51:18;;;;;;;18.13;7.83;;;;;;;19.52;63.11;99258.86;262335;1094;115313;-68
2021/07/23 01:56:24;;;;;;;11.70;7.87;;;;;;;19.54;63.81;99256.03;261313;1095;115304;-68
2021/07/23 02:01:29;;;;;;;15.10;8.30;;;;;;;19.56;63.98;99251.32;263099;1095;115393;-69
2021/07/23 02:06:54;;;;;;;20.83;9.08;;;;;;;19.56;63.80;99252.17;262561;1095;115366;-66
2021/07/23 02:11:58;;;;;;;10.20;8.33;;;;;;;19.54;63.92;99246.08;262843;1095;115229;-69
2021/07/23 02:17:21;;;;;;;14.07;9.23;;;;;;;19.49;64.15;99250.20;262461;1095;115885;-68
2021/07/23 02:22:27;;;;;;;12.97;9.07;;;;;;;19.44;64.35;99247.96;261634;1095;114533;-68
2021/07/23 02:27:34;;;;;;;12.98;8.58;;;;;;;19.41;64.28;99242.01;261686;1095;115122;-70
2021/07/23 02:32:39;;;;;;;14.23;8.63;;;;;;;19.40;64.49;99243.86;260868;1096;114898;-71
2021/07/23 02:37:43;;;;;;;13.83;9.70;;;;;;;19.39;64.76;99239.44;262984;1093;114933;-71
2021/07/23 02:42:47;;;;;;;13.43;9.10;;;;;;;19.37;64.82;99236.89;263116;1092;114566;-71
2021/07/23 02:47:52;;;;;;;15.90;9.50;;;;;;;19.35;64.70;99238.03;262318;1093;115147;-70
2021/07/23 02:52:56;;;;;;;16.07;8.53;;;;;;;19.32;64.77;99241.02;262901;1092;115051;-70
2021/07/23 02:58:00;;;;;;;15.28;8.60;;;;;;;19.34;65.18;99236.34;262543;1093;115245;-69
2021/07/23 03:03:05;;;;;;;17.73;9.75;;;;;;;19.36;65.06;99235.20;262681;1093;115179;-72
2021/07/23 03:08:10;;;;;;;14.00;9.67;;;;;;;19.39;65.46;99236.73;262094;1093;115245;-66
2021/07/23 03:13:22;;;;;;;13.50;9.33;;;;;;;19.39;65.32;99234.04;263064;1095;114938;-65
2021/07/23 03:18:26;;;;;;;16.45;9.50;;;;;;;19.38;65.23;99229.65;262310;1096;115140;-71
2021/07/23 03:23:30;;;;;;;15.50;8.70;;;;;;;19.36;65.50;99232.51;262036;1095;114795;-68
2021/07/23 03:28:34;;;;;;;15.05;8.08;;;;;;;19.35;65.70;99236.18;263017;1092;114680;-69
2021/07/23 03:33:44;;;;;;;15.03;9.20;;;;;;;19.40;65.90;99230.36;263021;1095;115923;-69
2021/07/23 03:38:48;;;;;;;;;;;;;;;19.42;65.55;99225.65;261138;1095;114737;-69
2021/07/23 03:43:54;;;;;;;13.85;9.28;;;;;;;19.41;65.85;99225.81;260726;1095;103003;-70
2021/07/23 03:49:06;;;;;;;14.77;9.23;;;;;;;19.37;65.88;99222.55;260565;1095;115103;-70
2021/07/23 03:54:14;;;;;;;19.93;8.33;;;;;;;19.34;65.98;99222.84;262000;1095;114925;-68
2021/07/23 03:59:21;;;;;;;13.77;8.40;;;;;;;19.35;65.90;99219.14;261901;1095;114517;-72
2021/07/23 04:04:35;;;;;;;14.87;9.07;;;;;;;19.41;66.04;99223.96;261458;1093;115270;-68
2021/07/23 04:09:40;;;;;;;15.47;9.33;;;;;;;19.43;65.95;99230.08;261629;1093;115165;-68
2021/07/23 04:14:47;;;;;;;16.60;9.63;;;;;;;19.44;65.59;99226.37;262937;1094;115066;-68
2021/07/23 04:19:53;;;;;;;16.37;10.33;;;;;;;19.43;65.89;99227.38;261209;1096;115154;-67
2021/07/23 04:24:57;;;;;;;;;;;;;;;19.43;65.66;99221.09;261335;1093;115221;-68
2021/07/23 04:30:04;;;;;;;18.38;8.98;;;;;;;19.44;65.98;99228.22;262709;1093;103008;-69
2021/07/23 04:35:28;;;;;;;19.03;9.13;;;;;;;19.47;66.06;99223.38;261222;1095;114744;-70
2021/07/23 04:40:36;;;;;;;15.95;9.40;;;;;;;19.51;66.36;99223.93;262054;1095;115608;-69
2021/07/23 04:45:41;;;;;;;19.87;9.57;;;;;;;19.54;66.03;99221.78;261255;1095;114392;-71
2021/07/23 04:50:46;;;;;;;16.03;9.50;;;;;;;19.54;65.95;99219.09;262040;1095;114970;-71
2021/07/23 04:56:10;;;;;;;12.93;8.55;;;;;;;19.57;65.83;99210.69;261171;1095;114900;-68
2021/07/23 05:01:17;;;;;;;26.10;18.23;;;;;;;20.01;67.11;99210.09;261977;1095;115336;-69
2021/07/23 05:06:27;;;;;;;23.23;15.67;;;;;;;20.52;67.13;99209.48;261308;1095;115359;-69
2021/07/23 05:11:37;;;;;;;24.73;19.20;;;;;;;20.89;66.16;99208.45;261281;1096;114506;-70
2021/07/23 05:16:42;;;;;;;23.78;14.88;;;;;;;21.09;65.70;99216.36;261162;1095;114776;-67
2021/07/23 05:21:54;;;;;;;22.80;13.37;;;;;;;21.23;65.56;99207.69;261176;1095;114916;-71
2021/07/23 05:26:59;;;;;;;15.37;9.83;;;;;;;21.32;64.87;99195.04;261289;1093;115019;-71
2021/07/23 05:32:07;;;;;;;20.07;13.70;;;;;;;21.40;64.71;99203.23;261240;1095;115881;-72
2021/07/23 05:37:14;;;;;;;94.27;76.30;;;;;;;21.46;64.29;99206.15;261312;1095;115701;-67
2021/07/23 05:42:20;;;;;;;22.93;17.87;;;;;;;21.55;64.39;99195.38;261249;1095;116233;-68
2021/07/23 05:47:30;;;;;;;98.45;75.35;;;;;;;21.58;63.95;99197.77;261159;1095;115643;-67
2021/07/23 05:52:39;;;;;;;44.40;34.80;;;;;;;21.63;63.83;99195.41;261085;1095;114675;-69
2021/07/23 05:57:45;;;;;;;38.00;26.00;;;;;;;21.66;63.71;99195.08;261181;1095;115108;-70
2021/07/23 06:02:52;;;;;;;54.90;37.43;;;;;;;21.66;63.84;99200.50;261337;1095;115046;-72
2021/07/23 06:08:02;;;;;;;29.73;19.57;;;;;;;21.75;63.34;99194.12;261158;1096;115037;-68
2021/07/23 06:13:16;;;;;;;24.80;17.57;;;;;;;21.84;63.17;99193.15;261013;1096;115305;-69
2021/07/23 06:18:26;;;;;;;19.07;11.63;;;;;;;21.97;63.09;99196.22;260962;1095;115751;-68
2021/07/23 06:23:32;;;;;;;24.53;13.00;;;;;;;22.07;62.90;99197.95;262230;1092;115338;-68
2021/07/23 06:28:36;;;;;;;19.93;12.48;;;;;;;22.12;62.78;99196.45;263054;1093;115038;-69
2021/07/23 06:33:40;;;;;;;20.55;12.63;;;;;;;22.19;62.60;99199.38;263060;1093;115372;-67
2021/07/23 06:38:44;;;;;;;98.58;70.55;;;;;;;22.19;62.54;99205.66;263132;1093;115445;-69
2021/07/23 06:43:47;;;;;;;32.63;20.58;;;;;;;22.18;62.33;99209.39;263022;1093;115638;-69
2021/07/23 06:48:51;;;;;;;25.88;17.03;;;;;;;22.20;62.19;99199.20;263105;1092;115458;-69
2021/07/23 06:53:54;;;;;;;19.25;11.43;;;;;;;22.28;62.54;99195.69;263187;1092;116097;-69
2021/07/23 06:58:58;;;;;;;62.75;46.85;;;;;;;22.29;62.45;99197.38;262149;1093;115293;-69
2021/07/23 07:04:01;;;;;;;106.98;77.13;;;;;;;22.38;62.44;99193.67;262039;1093;115054;-70
2021/07/23 07:09:09;;;;;;;68.10;47.40;;;;;;;22.41;62.07;99198.73;263084;1092;116669;-69
2021/07/23 07:14:13;;;;;;;23.85;14.53;;;;;;;22.40;61.96;99194.34;262169;1092;115266;-69
2021/07/23 07:19:17;;;;;;;17.70;12.55;;;;;;;22.41;61.97;99185.17;262697;1092;115616;-69
2021/07/23 07:24:22;;;;;;;380.47;294.47;;;;;;;22.46;62.02;99192.83;263165;1093;115062;-69
2021/07/23 07:29:27;;;;;;;34.93;27.30;;;;;;;22.54;62.15;99198.25;263052;1094;115481;-68
2021/07/23 07:34:34;;;;;;;25.10;19.05;;;;;;;22.59;61.77;99185.05;262993;1093;116102;-70
2021/07/23 07:39:38;;;;;;;32.83;15.77;;;;;;;22.68;61.79;99180.45;262332;1096;114840;-69
2021/07/23 07:44:41;;;;;;;40.08;15.28;;;;;;;22.74;61.25;99184.37;262455;1093;115529;-68
2021/07/23 07:49:45;;;;;;;34.88;19.60;;;;;;;22.80;61.26;99178.27;262977;1092;115697;-67
2021/07/23 07:54:49;;;;;;;29.23;15.55;;;;;;;22.80;60.38;99176.40;262846;1093;116263;-68
2021/07/23 07:59:52;;;;;;;16.15;9.48;;;;;;;22.83;60.34;99177.93;263077;1095;115439;-68
2021/07/23 08:04:56;;;;;;;16.88;11.45;;;;;;;22.87;60.21;99179.28;262957;1093;115974;-67
2021/07/23 08:10:03;;;;;;;28.15;10.73;;;;;;;22.85;59.86;99175.88;262992;1093;116391;-68
2021/07/23 08:15:08;;;;;;;13.80;8.20;;;;;;;22.91;59.94;99180.63;262903;1093;116325;-69
2021/07/23 08:20:12;;;;;;;18.17;8.40;;;;;;;22.94;59.84;99185.75;262930;1093;116020;-67
2021/07/23 08:25:17;;;;;;;59.20;41.38;;;;;;;22.98;59.63;99175.40;262916;1094;115475;-69
2021/07/23 08:30:21;;;;;;;27.03;19.00;;;;;;;23.05;59.35;99169.10;263074;1094;115642;-68
2021/07/23 08:35:25;;;;;;;15.50;9.95;;;;;;;23.11;59.20;99167.58;262937;1094;116135;-68
2021/07/23 08:40:28;;;;;;;17.93;8.78;;;;;;;23.19;58.99;99167.55;262559;1094;115929;-68
2021/07/23 08:45:32;;;;;;;14.63;7.85;;;;;;;23.26;58.60;99173.98;262804;1095;115703;-68
2021/07/23 08:50:37;;;;;;;12.08;7.15;;;;;;;23.27;57.71;99174.86;262971;1094;115891;-68
2021/07/23 08:55:41;;;;;;;9.53;6.80;;;;;;;23.25;56.90;99172.30;262923;1095;115605;-66
2021/07/23 09:00:45;;;;;;;8.03;6.10;;;;;;;23.26;57.48;99162.28;262771;1096;115238;-68
2021/07/23 09:05:49;;;;;;;13.53;10.07;;;;;;;23.29;56.98;99164.64;262597;1093;116150;-69
2021/07/23 09:11:06;;;;;;;15.05;8.38;;;;;;;23.31;56.74;99159.91;262944;1095;115868;-69
2021/07/23 09:16:24;;;;;;;12.10;6.00;;;;;;;23.33;56.75;99155.97;262777;1095;115404;-67
2021/07/23 09:21:28;;;;;;;9.00;6.23;;;;;;;23.37;56.83;99162.77;262899;1095;115729;-68
2021/07/23 09:26:47;;;;;;;14.45;7.33;;;;;;;23.37;56.20;99154.63;262946;1093;115097;-68
2021/07/23 09:32:10;;;;;;;141.20;113.33;;;;;;;23.37;56.11;99153.78;262960;1093;115494;-68
2021/07/23 09:37:13;;;;;;;16.30;11.23;;;;;;;23.42;56.05;99153.25;262899;1093;115882;-69
2021/07/23 09:42:31;;;;;;;14.98;7.00;;;;;;;23.47;55.75;99153.55;263056;1096;115649;-69
2021/07/23 09:47:35;;;;;;;10.10;6.30;;;;;;;23.50;55.68;99151.33;262957;1093;116052;-68
2021/07/23 09:52:39;;;;;;;9.85;5.95;;;;;;;23.50;55.26;99139.63;263058;1093;115252;-68
2021/07/23 09:57:47;;;;;;;9.90;5.78;;;;;;;23.54;55.04;99138.27;263031;1095;115076;-68
2021/07/23 10:02:53;;;;;;;38.60;30.10;;;;;;;23.59;54.80;99136.70;263032;1094;114877;-69
2021/07/23 10:08:04;;;;;;;16.90;8.55;;;;;;;23.69;54.87;99133.81;263031;1096;115818;-68
2021/07/23 10:13:09;;;;;;;12.73;6.50;;;;;;;23.72;54.85;99130.73;263112;1093;115090;-69
2021/07/23 10:18:12;;;;;;;9.60;6.30;;;;;;;23.80;54.88;99124.41;263143;1095;115124;-69
2021/07/23 10:23:19;;;;;;;8.13;6.13;;;;;;;23.85;54.60;99122.02;262968;1096;114958;-71
2021/07/23 10:28:38;;;;;;;8.83;5.90;;;;;;;23.86;54.65;99114.70;263001;1095;115206;-69
2021/07/23 10:33:53;;;;;;;10.63;6.27;;;;;;;23.93;54.61;99104.80;263051;1095;114902;-69
2021/07/23 10:39:05;;;;;;;9.30;5.70;;;;;;;24.17;54.68;99103.80;263002;1095;116113;-68
2021/07/23 10:44:51;;;;;;;11.03;5.07;;;;;;;24.35;54.05;99089.89;263085;1094;115655;-69
2021/07/23 10:49:55;;;;;;;7.03;5.50;;;;;;;24.49;53.90;99086.39;263027;1095;116162;-70
2021/07/23 10:55:21;;;;;;;10.28;5.70;;;;;;;24.55;53.11;99088.39;263020;1095;115021;-70
2021/07/23 11:00:43;;;;;;;11.00;5.95;;;;;;;24.63;52.73;99085.61;263184;1094;115022;-70
2021/07/23 11:05:46;;;;;;;12.57;5.50;;;;;;;24.76;52.75;99083.11;263036;1095;116346;-70
2021/07/23 11:10:54;;;;;;;8.23;4.98;;;;;;;25.01;51.91;99071.95;263070;1095;114785;-67
2021/07/23 11:16:17;;;;;;;6.63;4.67;;;;;;;25.23;51.15;99065.58;263038;1096;116163;-68
2021/07/23 11:21:23;;;;;;;10.30;5.23;;;;;;;25.47;50.28;99060.86;263008;1095;114897;-70
2021/07/23 11:26:26;;;;;;;11.90;5.67;;;;;;;25.60;50.37;99061.02;263077;1096;115390;-68
2021/07/23 11:31:34;;;;;;;11.18;5.33;;;;;;;25.69;50.00;99048.14;262999;1095;116195;-70
2021/07/23 11:36:39;;;;;;;8.00;5.80;;;;;;;25.73;49.89;99055.73;263202;1093;115395;-69
2021/07/23 11:42:04;;;;;;;8.55;5.80;;;;;;;25.62;49.51;99052.67;262900;1095;115095;-70
2021/07/23 11:47:08;;;;;;;11.07;5.70;;;;;;;25.58;49.62;99051.38;263001;1094;114606;-69
2021/07/23 11:52:20;;;;;;;8.80;5.00;;;;;;;25.50;49.20;99044.13;262995;1094;115515;-68
2021/07/23 11:57:23;;;;;;;8.20;5.23;;;;;;;25.46;48.81;99042.83;263037;1095;115020;-68
2021/07/23 12:02:28;;;;;;;9.70;5.98;;;;;;;25.49;48.98;99037.84;262872;1093;115967;-69
2021/07/23 12:07:34;;;;;;;11.00;6.13;;;;;;;25.51;48.96;99037.66;263067;1096;115449;-70
2021/07/23 12:12:39;;;;;;;11.27;5.70;;;;;;;25.68;48.40;99039.13;263105;1093;115205;-69
2021/07/23 12:17:48;;;;;;;12.67;6.50;;;;;;;25.87;48.51;99034.94;263028;1095;115397;-68
2021/07/23 12:22:59;;;;;;;20.97;7.00;;;;;;;25.86;48.28;99026.97;262970;1096;115558;-70
2021/07/23 12:28:10;;;;;;;8.20;5.43;;;;;;;25.74;48.20;99021.13;263055;1095;115486;-69
2021/07/23 12:33:26;;;;;;;9.63;5.65;;;;;;;25.83;48.05;99017.28;263090;1094;114772;-69
2021/07/23 12:38:30;;;;;;;9.50;5.40;;;;;;;25.93;48.45;99025.14;262121;1095;115254;-70
2021/07/23 12:43:35;;;;;;;9.10;5.38;;;;;;;26.23;48.00;99025.02;263001;1095;116009;-69
2021/07/23 12:48:38;;;;;;;6.40;5.30;;;;;;;26.47;48.53;99016.44;263133;1095;114856;-69
2021/07/23 12:53:44;;;;;;;8.48;5.20;;;;;;;26.59;47.60;99009.37;263044;1096;115130;-69
2021/07/23 12:58:47;;;;;;;8.60;5.03;;;;;;;26.78;47.58;99009.72;263033;1095;115429;-68
2021/07/23 13:03:54;;;;;;;9.00;5.78;;;;;;;26.92;47.21;99010.64;263012;1094;114798;-69
2021/07/23 13:08:59;;;;;;;11.63;6.10;;;;;;;26.98;46.86;99007.11;262778;1096;115410;-70
2021/07/23 13:14:02;;;;;;;8.67;5.87;;;;;;;26.89;46.24;99000.95;262689;1093;115566;-69
2021/07/23 13:19:06;;;;;;;9.35;5.15;;;;;;;26.98;46.02;99001.65;262590;1094;115083;-71
2021/07/23 13:24:11;;;;;;;8.23;5.83;;;;;;;26.98;45.88;98999.75;262443;1093;115237;-69
2021/07/23 13:29:15;;;;;;;11.93;5.33;;;;;;;26.71;46.02;99001.48;262900;1095;115241;-68
2021/07/23 13:34:19;;;;;;;93.08;77.70;;;;;;;26.43;45.68;98998.73;263061;1096;115496;-72
2021/07/23 13:39:34;;;;;;;16.93;11.10;;;;;;;26.25;45.98;98990.17;263054;1094;115420;-71
2021/07/23 13:44:38;;;;;;;11.03;6.10;;;;;;;26.01;46.40;98996.89;262624;1094;115533;-71
2021/07/23 13:49:41;;;;;;;10.83;5.90;;;;;;;25.80;46.56;98984.95;263070;1094;115198;-68
2021/07/23 13:54:46;;;;;;;6.95;5.20;;;;;;;25.73;46.71;98989.45;262403;1093;115959;-69
2021/07/23 13:59:49;;;;;;;;;;;;;;;25.65;46.67;98986.88;262799;1095;114741;-69
2021/07/23 14:04:52;;;;;;;9.37;5.23;;;;;;;25.63;46.99;98983.48;262997;1096;102904;-71
2021/07/23 14:09:59;;;;;;;8.23;5.40;;;;;;;25.85;47.52;98992.53;263050;1094;114819;-70
2021/07/23 14:15:05;;;;;;;10.37;5.50;;;;;;;26.21;47.23;98989.73;261991;1093;115139;-69
2021/07/23 14:20:08;;;;;;;14.47;6.23;;;;;;;26.23;46.98;98992.28;263039;1093;115308;-69
2021/07/23 14:25:12;;;;;;;6.03;4.93;;;;;;;26.08;46.68;98989.61;262463;1096;114777;-71
2021/07/23 14:30:16;;;;;;;8.03;5.53;;;;;;;25.85;46.55;98987.95;262735;1095;114760;-71
2021/07/23 14:35:19;;;;;;;9.58;5.65;;;;;;;25.72;46.54;98983.17;263050;1096;116306;-71
2021/07/23 14:40:23;;;;;;;6.83;5.60;;;;;;;25.75;46.75;98975.62;263065;1095;115921;-71
2021/07/23 14:45:27;;;;;;;8.83;5.50;;;;;;;25.59;46.66;98972.13;262997;1095;114578;-70
2021/07/23 14:50:31;;;;;;;45.17;30.90;;;;;;;25.53;47.04;98974.77;263048;1095;115314;-70
2021/07/23 14:55:35;;;;;;;24.90;19.30;;;;;;;25.49;47.29;98975.16;263034;1095;115418;-71
2021/07/23 15:00:42;;;;;;;31.27;14.47;;;;;;;25.47;48.01;98960.03;263185;1094;115258;-69
2021/07/23 15:05:46;;;;;;;21.80;9.80;;;;;;;25.43;47.38;98962.30;263071;1096;115590;-70
2021/07/23 15:10:49;;;;;;;10.70;7.03;;;;;;;25.41;47.59;98963.55;263047;1094;114854;-68
2021/07/23 15:15:53;;;;;;;9.28;6.48;;;;;;;25.42;47.59;98960.62;263045;1095;114985;-71
2021/07/23 15:21:02;;;;;;;11.03;6.98;;;;;;;25.37;47.66;98962.22;263057;1096;115381;-69
2021/07/23 15:26:07;;;;;;;9.33;7.03;;;;;;;25.29;47.60;98956.90;261394;1093;115601;-69
2021/07/23 15:31:10;;;;;;;18.47;10.60;;;;;;;25.25;47.45;98956.44;262301;1095;114764;-69
2021/07/23 15:36:15;;;;;;;18.73;8.87;;;;;;;25.20;47.91;98962.47;262004;1095;115381;-69
2021/07/23 15:41:20;;;;;;;24.60;8.97;;;;;;;25.17;48.04;98965.58;262808;1095;116502;-70
2021/07/23 15:46:23;;;;;;;25.38;8.23;;;;;;;25.09;47.89;98965.63;263000;1093;115351;-71
2021/07/23 15:51:27;;;;;;;15.48;7.73;;;;;;;25.02;48.02;98959.26;263051;1093;116005;-71
2021/07/23 15:56:31;;;;;;;17.40;7.80;;;;;;;24.95;47.99;98961.89;262961;1093;114919;-68
2021/07/23 16:01:37;;;;;;;8.87;6.07;;;;;;;24.91;48.13;98955.14;263030;1094;115091;-70
2021/07/23 16:06:41;;;;;;;9.70;6.43;;;;;;;24.90;48.02;98942.58;263107;1093;116245;-71
2021/07/23 16:11:44;;;;;;;8.90;6.08;;;;;;;24.88;47.79;98941.91;263084;1096;115331;-69
2021/07/23 16:16:48;;;;;;;8.83;5.98;;;;;;;24.84;48.05;98947.93;262947;1094;115037;-71
2021/07/23 16:21:53;;;;;;;11.00;6.20;;;;;;;24.83;48.42;98947.09;263031;1095;115593;-70
2021/07/23 16:26:57;;;;;;;7.38;5.35;;;;;;;24.85;48.17;98944.16;262978;1096;115469;-71
2021/07/23 16:32:05;;;;;;;14.95;5.95;;;;;;;24.82;48.32;98941.81;262991;1095;115083;-71
2021/07/23 16:37:09;;;;;;;66.43;46.00;;;;;;;24.80;48.10;98933.86;262966;1095;114804;-71
2021/07/23 16:42:13;;;;;;;10.83;7.73;;;;;;;24.78;48.50;98947.63;262840;1095;117032;-69
2021/07/23 16:47:16;;;;;;;10.43;7.65;;;;;;;24.75;48.63;98942.56;262680;1095;115270;-70
2021/07/23 16:52:21;;;;;;;11.20;7.33;;;;;;;24.71;48.79;98940.42;263063;1096;115036;-69
2021/07/23 16:57:25;;;;;;;7.60;5.78;;;;;;;24.66;48.91;98946.44;263012;1095;114939;-70
2021/07/23 17:02:29;;;;;;;12.10;7.17;;;;;;;24.60;49.26;98949.91;263020;1096;115268;-70
2021/07/23 17:07:33;;;;;;;7.73;6.45;;;;;;;24.56;49.08;98943.16;263079;1094;115288;-69
2021/07/23 17:12:37;;;;;;;7.00;6.13;;;;;;;24.54;49.23;98954.20;263144;1096;114953;-70
2021/07/23 17:17:41;;;;;;;9.43;5.73;;;;;;;24.52;49.37;98941.81;262685;1095;114937;-67
2021/07/23 17:22:44;;;;;;;9.45;6.20;;;;;;;24.49;49.25;98940.33;262273;1094;114379;-70
2021/07/23 17:27:49;;;;;;;7.40;5.55;;;;;;;24.50;49.14;98943.89;262493;1093;114745;-69
2021/07/23 17:32:53;;;;;;;6.70;5.70;;;;;;;24.48;49.47;98943.22;263102;1095;115781;-69
2021/07/23 17:37:57;;;;;;;7.88;6.43;;;;;;;24.43;49.50;98938.36;263017;1096;115046;-70
2021/07/23 17:43:03;;;;;;;8.87;6.13;;;;;;;24.40;49.65;98944.16;262944;1095;115200;-70
2021/07/23 17:48:08;;;;;;;9.93;6.60;;;;;;;24.36;49.34;98939.27;263120;1094;114900;-70
2021/07/23 17:53:12;;;;;;;7.20;5.70;;;;;;;24.33;49.57;98947.80;263070;1095;115012;-69
2021/07/23 17:58:16;;;;;;;8.57;5.80;;;;;;;24.27;49.74;98939.33;262803;1096;115091;-70
2021/07/23 18:03:20;;;;;;;8.58;5.80;;;;;;;24.20;49.65;98938.38;262975;1094;114926;-69
2021/07/23 18:08:24;;;;;;;243.28;204.30;;;;;;;24.14;50.06;98944.55;263033;1095;114620;-71
2021/07/23 18:13:28;;;;;;;;;;;;;;;24.10;50.25;98954.11;262675;1096;115568;-70
2021/07/23 18:18:32;;;;;;;16.90;9.63;;;;;;;24.05;50.50;98948.40;263202;1093;101259;-72
2021/07/23 18:23:38;;;;;;;10.63;7.67;;;;;;;24.00;50.73;98953.52;262471;1095;115323;-69
2021/07/23 18:28:46;;;;;;;9.75;6.25;;;;;;;23.94;50.40;98959.69;262455;1096;114741;-70
2021/07/23 18:33:51;;;;;;;10.37;6.60;;;;;;;23.87;50.71;98956.86;263079;1095;114902;-69
2021/07/23 18:38:54;;;;;;;14.10;8.15;;;;;;;23.81;50.94;98955.73;263050;1095;114884;-69
2021/07/23 18:43:58;;;;;;;411.53;334.28;;;;;;;23.77;51.18;98964.41;263032;1095;115512;-68
2021/07/23 18:49:01;;;;;;;58.90;48.53;;;;;;;23.74;51.39;98953.90;262520;1093;116038;-69
2021/07/23 18:54:05;;;;;;;28.98;16.75;;;;;;;23.70;51.69;98963.45;263200;1093;115080;-69
2021/07/23 18:59:08;;;;;;;24.10;17.80;;;;;;;23.63;52.04;98967.89;262833;1095;115253;-68
2021/07/23 19:04:14;;;;;;;35.63;10.97;;;;;;;23.56;51.88;98973.19;262737;1095;115530;-70
2021/07/23 19:09:19;;;;;;;98.00;84.90;;;;;;;23.48;51.78;98970.55;262970;1095;115872;-68
2021/07/23 19:14:23;;;;;;;52.40;37.90;;;;;;;23.43;52.34;98978.37;263088;1093;115073;-67
2021/07/23 19:19:27;;;;;;;40.75;31.08;;;;;;;23.43;52.50;98978.37;263047;1095;115647;-67
2021/07/23 19:24:31;;;;;;;30.45;23.30;;;;;;;23.41;52.71;98986.70;263175;1096;114925;-67
2021/07/23 19:29:35;;;;;;;;;;;;;;;23.36;52.65;98984.51;263051;1096;114819;-68
2021/07/23 19:34:39;;;;;;;19.10;11.60;;;;;;;23.32;52.73;98993.20;263183;1093;101446;-66
2021/07/23 19:39:42;;;;;;;153.13;108.28;;;;;;;23.28;53.01;98990.00;263091;1092;115440;-71
2021/07/23 19:44:47;;;;;;;37.90;28.88;;;;;;;23.26;53.02;98988.47;263090;1095;116543;-69
2021/07/23 19:49:50;;;;;;;29.83;22.60;;;;;;;23.23;52.97;98986.95;262986;1093;115905;-70
2021/07/23 19:54:54;;;;;;;37.05;25.45;;;;;;;23.22;53.40;98993.42;263216;1094;115416;-67
2021/07/23 19:59:58;;;;;;;28.35;20.40;;;;;;;23.20;53.02;98991.89;263021;1094;115958;-69
2021/07/23 20:05:01;;;;;;;17.80;9.30;;;;;;;23.12;52.85;98988.20;262518;1096;115432;-68
2021/07/23 20:10:06;;;;;;;23.93;15.20;;;;;;;23.09;52.97;98993.14;262453;1094;115504;-69
2021/07/23 20:15:10;;;;;;;240.40;193.60;;;;;;;23.08;53.55;98994.17;263106;1095;116335;-70
2021/07/23 20:20:14;;;;;;;27.90;22.57;;;;;;;23.07;53.48;98992.48;263115;1095;115151;-69
2021/07/23 20:25:18;;;;;;;13.28;9.23;;;;;;;23.06;53.26;98991.64;263052;1096;116265;-68
2021/07/23 20:30:22;;;;;;;15.20;7.20;;;;;;;22.96;53.50;98998.27;263236;1093;115429;-69
2021/07/23 20:35:25;;;;;;;9.20;7.08;;;;;;;22.82;53.20;99003.38;263147;1093;115940;-71
2021/07/23 20:40:29;;;;;;;14.08;8.50;;;;;;;22.73;53.27;98993.59;263074;1094;115293;-71
2021/07/23 20:45:35;;;;;;;12.88;7.95;;;;;;;22.61;53.35;99000.39;262642;1095;115289;-69
2021/07/23 20:50:39;;;;;;;12.53;8.10;;;;;;;22.53;53.75;99003.98;262875;1094;114820;-69
2021/07/23 20:55:43;;;;;;;11.25;7.78;;;;;;;22.46;53.93;99002.98;262628;1092;115349;-68
2021/07/23 21:00:51;;;;;;;11.78;7.38;;;;;;;22.39;54.00;99001.97;263199;1095;116158;-66
2021/07/23 21:05:55;;;;;;;10.87;7.67;;;;;;;22.31;54.17;99010.09;262954;1096;115205;-68
2021/07/23 21:10:59;;;;;;;10.38;7.48;;;;;;;22.25;54.30;99005.35;262762;1093;114823;-69
2021/07/23 21:16:06;;;;;;;10.63;7.73;;;;;;;22.19;54.30;99015.03;262691;1092;114866;-68
2021/07/23 21:21:12;;;;;;;11.45;7.75;;;;;;;22.11;54.45;99010.44;262767;1094;115211;-65
2021/07/23 21:26:16;;;;;;;10.70;7.77;;;;;;;22.04;54.46;99011.27;262938;1095;115309;-68
2021/07/23 21:31:23;;;;;;;11.65;7.95;;;;;;;21.98;54.42;99007.38;263066;1095;116091;-71
2021/07/23 21:36:44;;;;;;;15.40;7.47;;;;;;;21.91;54.59;99009.92;263227;1095;115106;-73
2021/07/23 21:41:51;;;;;;;8.87;7.67;;;;;;;21.84;55.09;99011.61;262307;1095;115024;-70
2021/07/23 21:46:55;;;;;;;12.70;7.57;;;;;;;21.77;54.57;99012.42;262267;1095;115670;-69
2021/07/23 21:51:59;;;;;;;12.03;7.83;;;;;;;21.68;55.17;99012.42;263073;1096;115058;-71
2021/07/23 21:57:03;;;;;;;11.93;7.70;;;;;;;21.61;55.33;99014.11;263110;1095;116053;-71
2021/07/23 22:02:08;;;;;;;12.30;8.50;;;;;;;21.57;55.38;99011.88;262545;1096;116101;-70
2021/07/23 22:07:12;;;;;;;11.13;7.87;;;;;;;21.53;55.70;99016.78;260964;1093;114932;-70
2021/07/23 22:12:19;;;;;;;11.67;7.83;;;;;;;21.48;55.75;99013.73;263186;1094;114922;-70
2021/07/23 22:17:26;;;;;;;11.65;7.75;;;;;;;21.43;55.95;99019.66;263145;1095;115174;-73
2021/07/23 22:22:32;;;;;;;12.53;8.83;;;;;;;21.40;56.13;99019.11;261915;1095;114941;-70
2021/07/23 22:27:36;;;;;;;11.33;6.83;;;;;;;21.33;56.33;99016.21;263118;1095;115188;-72
2021/07/23 22:32:40;;;;;;;11.98;8.03;;;;;;;21.33;56.55;99012.63;261097;1094;114694;-72
2021/07/23 22:37:44;;;;;;;;;;;;;;;21.34;56.46;99012.52;260608;1093;115587;-72
2021/07/23 22:42:48;;;;;;;14.33;8.13;;;;;;;21.32;56.61;99016.36;261509;1095;103021;-72
2021/07/23 22:47:54;;;;;;;10.98;7.83;;;;;;;21.29;56.83;99022.09;261982;1095;114723;-69
2021/07/23 22:53:00;;;;;;;13.10;8.37;;;;;;;21.25;56.74;99019.72;262135;1095;115459;-67
2021/07/23 22:58:04;;;;;;;12.23;8.17;;;;;;;21.21;57.14;99012.09;263117;1095;115743;-70
2021/07/23 23:03:08;;;;;;;11.83;8.18;;;;;;;21.16;56.87;99007.19;263119;1093;115426;-69
2021/07/23 23:08:14;;;;;;;10.93;8.60;;;;;;;21.09;57.07;99013.39;261123;1095;114672;-69
2021/07/23 23:13:21;;;;;;;15.23;8.87;;;;;;;21.03;57.43;99010.34;262137;1096;117835;-68